sensor_id;sensor_type;location;lat;lon;timestamp;pressure;altitude;pressure_sealevel;temperature;humidity
74524;BME280;63074;44.696;10.358;2022-10-13T00:00:40;100645.56;;;14.82;100.00
74524;BME280;63074;44.696;10.358;2022-10-13T00:03:08;100640.72;;;14.84;100.00
74524;BME280;63074;44.696;10.358;2022-10-13T00:05:39;100641.09;;;14.71;100.00
74524;BME280;63074;44.696;10.358;2022-10-13T00:08:05;100648.69;;;14.91;100.00
74524;BME280;63074;44.696;10.358;2022-10-13T00:10:30;100649.00;;;14.78;100.00
74524;BME280;63074;44.696;10.358;2022-10-13T00:12:56;100647.78;;;14.85;100.00
74524;BME280;63074;44.696;10.358;2022-10-13T00:15:21;100652.72;;;14.72;100.00
74524;BME280;63074;44.696;10.358;2022-10-13T00:17:47;100646.84;;;14.58;100.00
74524;BME280;63074;44.696;10.358;2022-10-13T00:20:12;100649.59;;;14.46;100.00
74524;BME280;63074;44.696;10.358;2022-10-13T00:22:37;100649.56;;;14.41;100.00
74524;BME280;63074;44.696;10.358;2022-10-13T00:25:03;100655.69;;;14.53;100.00
74524;BME280;63074;44.696;10.358;2022-10-13T00:27:29;100657.41;;;14.43;100.00
74524;BME280;63074;44.696;10.358;2022-10-13T00:29:55;100656.63;;;14.31;100.00
74524;BME280;63074;44.696;10.358;2022-10-13T00:32:21;100655.34;;;14.33;100.00
74524;BME280;63074;44.696;10.358;2022-10-13T00:34:46;100658.69;;;14.40;100.00
74524;BME280;63074;44.696;10.358;2022-10-13T00:37:11;100651.97;;;14.26;100.00
74524;BME280;63074;44.696;10.358;2022-10-13T00:39:37;100649.25;;;14.26;100.00
74524;BME280;63074;44.696;10.358;2022-10-13T00:42:03;100651.38;;;14.24;100.00
74524;BME280;63074;44.696;10.358;2022-10-13T00:44:57;100652.28;;;14.30;100.00
74524;BME280;63074;44.696;10.358;2022-10-13T00:47:25;100645.81;;;14.31;100.00
74524;BME280;63074;44.696;10.358;2022-10-13T00:49:52;100647.63;;;14.25;100.00
74524;BME280;63074;44.696;10.358;2022-10-13T00:52:19;100645.31;;;14.17;100.00
74524;BME280;63074;44.696;10.358;2022-10-13T00:54:45;100651.97;;;14.09;100.00
74524;BME280;63074;44.696;10.358;2022-10-13T00:57:11;100643.75;;;14.04;100.00
74524;BME280;63074;44.696;10.358;2022-10-13T00:59:38;100645.63;;;14.04;100.00
74524;BME280;63074;44.696;10.358;2022-10-13T01:02:04;100641.41;;;14.08;100.00
74524;BME280;63074;44.696;10.358;2022-10-13T01:04:36;100647.28;;;14.05;100.00
74524;BME280;63074;44.696;10.358;2022-10-13T01:07:05;100638.19;;;14.11;100.00
74524;BME280;63074;44.696;10.358;2022-10-13T01:09:31;100633.38;;;14.13;100.00
74524;BME280;63074;44.696;10.358;2022-10-13T01:30:32;100614.84;;;14.22;100.00
74524;BME280;63074;44.696;10.358;2022-10-13T01:35:58;100603.66;;;14.13;100.00
74524;BME280;63074;44.696;10.358;2022-10-13T01:41:19;100583.97;;;14.01;100.00
74524;BME280;63074;44.696;10.358;2022-10-13T01:43:55;100593.66;;;14.13;100.00
74524;BME280;63074;44.696;10.358;2022-10-13T01:46:33;100589.22;;;14.24;100.00
74524;BME280;63074;44.696;10.358;2022-10-13T01:49:03;100593.38;;;14.15;100.00
74524;BME280;63074;44.696;10.358;2022-10-13T01:51:30;100585.84;;;14.17;100.00
74524;BME280;63074;44.696;10.358;2022-10-13T01:53:57;100585.78;;;14.12;100.00
74524;BME280;63074;44.696;10.358;2022-10-13T01:56:22;100586.91;;;14.16;100.00
74524;BME280;63074;44.696;10.358;2022-10-13T01:58:49;100585.53;;;14.30;100.00
74524;BME280;63074;44.696;10.358;2022-10-13T02:06:57;100588.16;;;14.08;100.00
74524;BME280;63074;44.696;10.358;2022-10-13T02:09:34;100595.03;;;13.99;100.00
74524;BME280;63074;44.696;10.358;2022-10-13T02:12:29;100584.06;;;14.06;100.00
74524;BME280;63074;44.696;10.358;2022-10-13T02:14:57;100578.81;;;13.99;100.00
74524;BME280;63074;44.696;10.358;2022-10-13T02:17:24;100581.41;;;13.77;100.00
74524;BME280;63074;44.696;10.358;2022-10-13T02:19:52;100569.56;;;13.78;100.00
74524;BME280;63074;44.696;10.358;2022-10-13T02:22:20;100575.97;;;13.61;100.00
74524;BME280;63074;44.696;10.358;2022-10-13T02:24:46;100572.50;;;13.77;100.00
74524;BME280;63074;44.696;10.358;2022-10-13T02:27:12;100566.53;;;13.75;100.00
74524;BME280;63074;44.696;10.358;2022-10-13T02:30:07;100565.38;;;13.71;100.00
74524;BME280;63074;44.696;10.358;2022-10-13T02:32:33;100563.63;;;13.65;100.00
74524;BME280;63074;44.696;10.358;2022-10-13T02:34:58;100565.69;;;13.74;100.00
74524;BME280;63074;44.696;10.358;2022-10-13T02:37:24;100564.16;;;13.78;100.00
74524;BME280;63074;44.696;10.358;2022-10-13T02:39:50;100566.34;;;13.65;100.00
74524;BME280;63074;44.696;10.358;2022-10-13T02:42:16;100570.50;;;13.56;100.00
74524;BME280;63074;44.696;10.358;2022-10-13T02:44:41;100574.56;;;13.58;100.00
74524;BME280;63074;44.696;10.358;2022-10-13T02:47:06;100576.81;;;13.33;100.00
74524;BME280;63074;44.696;10.358;2022-10-13T02:49:32;100578.03;;;13.25;100.00
74524;BME280;63074;44.696;10.358;2022-10-13T02:51:57;100579.59;;;13.38;100.00
74524;BME280;63074;44.696;10.358;2022-10-13T02:54:22;100584.53;;;13.41;100.00
74524;BME280;63074;44.696;10.358;2022-10-13T02:56:48;100582.03;;;13.51;100.00
74524;BME280;63074;44.696;10.358;2022-10-13T02:59:13;100580.56;;;13.60;100.00
74524;BME280;63074;44.696;10.358;2022-10-13T03:01:39;100576.69;;;13.84;100.00
74524;BME280;63074;44.696;10.358;2022-10-13T03:04:09;100578.16;;;13.75;100.00
74524;BME280;63074;44.696;10.358;2022-10-13T03:06:35;100587.88;;;13.76;100.00
74524;BME280;63074;44.696;10.358;2022-10-13T03:09:01;100571.91;;;13.75;100.00
74524;BME280;63074;44.696;10.358;2022-10-13T03:11:26;100579.44;;;13.73;100.00
74524;BME280;63074;44.696;10.358;2022-10-13T03:13:56;100578.28;;;13.69;100.00
74524;BME280;63074;44.696;10.358;2022-10-13T03:16:21;100575.81;;;13.67;100.00
74524;BME280;63074;44.696;10.358;2022-10-13T03:18:47;100577.63;;;13.62;100.00
74524;BME280;63074;44.696;10.358;2022-10-13T03:21:13;100576.78;;;13.61;100.00
74524;BME280;63074;44.696;10.358;2022-10-13T03:23:39;100572.34;;;13.83;100.00
74524;BME280;63074;44.696;10.358;2022-10-13T03:26:04;100571.44;;;13.95;100.00
74524;BME280;63074;44.696;10.358;2022-10-13T03:28:30;100566.44;;;13.86;100.00
74524;BME280;63074;44.696;10.358;2022-10-13T03:31:07;100570.13;;;13.97;100.00
74524;BME280;63074;44.696;10.358;2022-10-13T03:33:34;100568.16;;;13.93;100.00
74524;BME280;63074;44.696;10.358;2022-10-13T03:36:00;100568.13;;;13.59;100.00
74524;BME280;63074;44.696;10.358;2022-10-13T03:38:31;100583.53;;;13.75;100.00
74524;BME280;63074;44.696;10.358;2022-10-13T03:41:06;100576.03;;;13.94;100.00
74524;BME280;63074;44.696;10.358;2022-10-13T03:43:32;100579.41;;;13.84;100.00
74524;BME280;63074;44.696;10.358;2022-10-13T03:45:59;100574.66;;;13.63;100.00
74524;BME280;63074;44.696;10.358;2022-10-13T03:48:26;100571.13;;;13.46;100.00
74524;BME280;63074;44.696;10.358;2022-10-13T03:50:52;100574.03;;;13.28;100.00
74524;BME280;63074;44.696;10.358;2022-10-13T03:53:17;100579.44;;;13.16;100.00
74524;BME280;63074;44.696;10.358;2022-10-13T03:55:51;100579.16;;;13.29;100.00
74524;BME280;63074;44.696;10.358;2022-10-13T03:58:16;100582.59;;;13.13;100.00
74524;BME280;63074;44.696;10.358;2022-10-13T04:00:42;100586.00;;;13.08;100.00
74524;BME280;63074;44.696;10.358;2022-10-13T04:03:08;100589.66;;;13.02;100.00
74524;BME280;63074;44.696;10.358;2022-10-13T04:05:33;100591.66;;;13.18;100.00
74524;BME280;63074;44.696;10.358;2022-10-13T04:07:59;100582.00;;;13.11;100.00
74524;BME280;63074;44.696;10.358;2022-10-13T04:10:24;100581.19;;;13.10;100.00
74524;BME280;63074;44.696;10.358;2022-10-13T04:12:50;100581.34;;;13.15;100.00
74524;BME280;63074;44.696;10.358;2022-10-13T04:15:15;100584.13;;;13.09;100.00
74524;BME280;63074;44.696;10.358;2022-10-13T04:17:41;100576.28;;;13.07;100.00
74524;BME280;63074;44.696;10.358;2022-10-13T04:20:07;100580.38;;;13.10;100.00
74524;BME280;63074;44.696;10.358;2022-10-13T04:22:32;100579.75;;;13.31;100.00
74524;BME280;63074;44.696;10.358;2022-10-13T04:24:58;100581.81;;;13.41;100.00
74524;BME280;63074;44.696;10.358;2022-10-13T04:27:23;100581.00;;;13.40;100.00
74524;BME280;63074;44.696;10.358;2022-10-13T04:29:51;100582.78;;;13.35;100.00
74524;BME280;63074;44.696;10.358;2022-10-13T04:32:17;100574.53;;;13.41;100.00
74524;BME280;63074;44.696;10.358;2022-10-13T04:34:42;100571.72;;;13.48;100.00
74524;BME280;63074;44.696;10.358;2022-10-13T04:37:07;100567.75;;;13.39;100.00
74524;BME280;63074;44.696;10.358;2022-10-13T04:39:33;100572.81;;;13.35;100.00
74524;BME280;63074;44.696;10.358;2022-10-13T04:41:58;100570.69;;;13.37;100.00
74524;BME280;63074;44.696;10.358;2022-10-13T04:44:23;100563.25;;;13.04;100.00
74524;BME280;63074;44.696;10.358;2022-10-13T04:46:49;100565.88;;;12.99;100.00
74524;BME280;63074;44.696;10.358;2022-10-13T04:49:15;100567.13;;;13.08;100.00
74524;BME280;63074;44.696;10.358;2022-10-13T04:51:41;100566.06;;;13.09;100.00
74524;BME280;63074;44.696;10.358;2022-10-13T04:54:06;100557.97;;;13.09;100.00
74524;BME280;63074;44.696;10.358;2022-10-13T04:56:32;100563.78;;;12.90;100.00
74524;BME280;63074;44.696;10.358;2022-10-13T04:58:57;100556.63;;;12.72;100.00
74524;BME280;63074;44.696;10.358;2022-10-13T05:07:10;100543.31;;;12.42;100.00
74524;BME280;63074;44.696;10.358;2022-10-13T05:09:35;100539.91;;;12.46;100.00
74524;BME280;63074;44.696;10.358;2022-10-13T05:12:01;100541.59;;;12.36;100.00
74524;BME280;63074;44.696;10.358;2022-10-13T05:14:27;100543.00;;;12.38;100.00
74524;BME280;63074;44.696;10.358;2022-10-13T05:16:53;100540.88;;;12.29;100.00
74524;BME280;63074;44.696;10.358;2022-10-13T05:19:18;100542.75;;;12.40;100.00
74524;BME280;63074;44.696;10.358;2022-10-13T05:21:44;100535.13;;;12.37;100.00
74524;BME280;63074;44.696;10.358;2022-10-13T05:24:09;100539.72;;;12.36;100.00
74524;BME280;63074;44.696;10.358;2022-10-13T05:26:38;100535.13;;;12.37;100.00
74524;BME280;63074;44.696;10.358;2022-10-13T05:29:04;100536.78;;;12.38;100.00
74524;BME280;63074;44.696;10.358;2022-10-13T05:31:31;100529.59;;;12.43;100.00
74524;BME280;63074;44.696;10.358;2022-10-13T05:33:57;100528.94;;;12.36;100.00
74524;BME280;63074;44.696;10.358;2022-10-13T05:36:33;100527.25;;;12.59;100.00
74524;BME280;63074;44.696;10.358;2022-10-13T05:39:01;100525.38;;;12.59;100.00
74524;BME280;63074;44.696;10.358;2022-10-13T05:41:28;100521.16;;;12.51;100.00
74524;BME280;63074;44.696;10.358;2022-10-13T05:43:56;100525.03;;;12.44;100.00
74524;BME280;63074;44.696;10.358;2022-10-13T05:46:23;100523.50;;;12.48;100.00
74524;BME280;63074;44.696;10.358;2022-10-13T05:48:48;100533.56;;;12.64;100.00
74524;BME280;63074;44.696;10.358;2022-10-13T05:51:35;100528.78;;;12.66;100.00
74524;BME280;63074;44.696;10.358;2022-10-13T05:56:40;100529.94;;;12.70;100.00
74524;BME280;63074;44.696;10.358;2022-10-13T05:59:08;100531.56;;;12.71;100.00
74524;BME280;63074;44.696;10.358;2022-10-13T06:01:38;100535.53;;;12.80;100.00
74524;BME280;63074;44.696;10.358;2022-10-13T06:04:08;100534.34;;;12.76;100.00
74524;BME280;63074;44.696;10.358;2022-10-13T06:06:36;100533.00;;;13.02;100.00
74524;BME280;63074;44.696;10.358;2022-10-13T06:09:01;100533.00;;;13.02;100.00
74524;BME280;63074;44.696;10.358;2022-10-13T06:11:27;100539.44;;;13.01;100.00
74524;BME280;63074;44.696;10.358;2022-10-13T06:13:52;100534.25;;;13.11;100.00
74524;BME280;63074;44.696;10.358;2022-10-13T06:16:17;100527.47;;;13.09;100.00
74524;BME280;63074;44.696;10.358;2022-10-13T06:18:43;100527.81;;;13.12;100.00
74524;BME280;63074;44.696;10.358;2022-10-13T06:21:08;100523.22;;;13.25;100.00
74524;BME280;63074;44.696;10.358;2022-10-13T06:23:34;100530.34;;;13.31;100.00
74524;BME280;63074;44.696;10.358;2022-10-13T06:26:00;100531.00;;;13.38;100.00
74524;BME280;63074;44.696;10.358;2022-10-13T06:28:25;100536.13;;;13.51;100.00
74524;BME280;63074;44.696;10.358;2022-10-13T06:30:51;100529.19;;;13.55;100.00
74524;BME280;63074;44.696;10.358;2022-10-13T06:33:21;100534.09;;;13.75;100.00
74524;BME280;63074;44.696;10.358;2022-10-13T06:35:47;100527.66;;;13.76;100.00
74524;BME280;63074;44.696;10.358;2022-10-13T06:38:12;100532.66;;;13.84;100.00
74524;BME280;63074;44.696;10.358;2022-10-13T06:40:38;100533.63;;;13.95;100.00
74524;BME280;63074;44.696;10.358;2022-10-13T06:43:03;100534.44;;;14.12;100.00
74524;BME280;63074;44.696;10.358;2022-10-13T06:45:29;100531.56;;;14.18;100.00
74524;BME280;63074;44.696;10.358;2022-10-13T06:47:54;100542.38;;;14.18;100.00
74524;BME280;63074;44.696;10.358;2022-10-13T06:50:21;100544.56;;;14.22;100.00
74524;BME280;63074;44.696;10.358;2022-10-13T06:52:46;100546.06;;;14.12;100.00
74524;BME280;63074;44.696;10.358;2022-10-13T06:55:12;100549.66;;;14.18;100.00
74524;BME280;63074;44.696;10.358;2022-10-13T06:57:37;100553.94;;;14.14;100.00
74524;BME280;63074;44.696;10.358;2022-10-13T07:00:04;100554.56;;;14.21;100.00
74524;BME280;63074;44.696;10.358;2022-10-13T07:02:30;100555.22;;;14.28;100.00
74524;BME280;63074;44.696;10.358;2022-10-13T07:04:55;100548.84;;;14.34;100.00
74524;BME280;63074;44.696;10.358;2022-10-13T07:07:20;100556.34;;;14.49;100.00
74524;BME280;63074;44.696;10.358;2022-10-13T07:09:46;100549.63;;;14.51;100.00
74524;BME280;63074;44.696;10.358;2022-10-13T07:12:12;100551.03;;;14.76;100.00
74524;BME280;63074;44.696;10.358;2022-10-13T07:14:38;100546.16;;;14.95;100.00
74524;BME280;63074;44.696;10.358;2022-10-13T07:17:03;100542.63;;;14.94;100.00
74524;BME280;63074;44.696;10.358;2022-10-13T07:19:28;100550.81;;;14.99;100.00
74524;BME280;63074;44.696;10.358;2022-10-13T07:21:55;100550.50;;;15.17;100.00
74524;BME280;63074;44.696;10.358;2022-10-13T07:24:21;100544.06;;;15.24;100.00
74524;BME280;63074;44.696;10.358;2022-10-13T07:26:46;100552.28;;;15.34;100.00
74524;BME280;63074;44.696;10.358;2022-10-13T07:29:11;100553.91;;;15.35;100.00
74524;BME280;63074;44.696;10.358;2022-10-13T07:31:37;100554.34;;;15.48;100.00
74524;BME280;63074;44.696;10.358;2022-10-13T07:34:02;100556.44;;;15.41;100.00
74524;BME280;63074;44.696;10.358;2022-10-13T07:36:30;100555.78;;;15.29;100.00
74524;BME280;63074;44.696;10.358;2022-10-13T07:38:56;100562.09;;;15.40;100.00
74524;BME280;63074;44.696;10.358;2022-10-13T07:41:23;100560.78;;;15.42;100.00
74524;BME280;63074;44.696;10.358;2022-10-13T07:43:52;100567.06;;;15.48;100.00
74524;BME280;63074;44.696;10.358;2022-10-13T07:46:18;100572.16;;;15.66;100.00
74524;BME280;63074;44.696;10.358;2022-10-13T07:48:43;100574.19;;;15.81;100.00
74524;BME280;63074;44.696;10.358;2022-10-13T07:51:11;100573.03;;;15.72;100.00
74524;BME280;63074;44.696;10.358;2022-10-13T07:53:37;100578.59;;;15.60;100.00
74524;BME280;63074;44.696;10.358;2022-10-13T07:56:05;100577.88;;;15.70;100.00
74524;BME280;63074;44.696;10.358;2022-10-13T07:58:32;100587.00;;;15.91;100.00
74524;BME280;63074;44.696;10.358;2022-10-13T08:00:59;100581.63;;;15.96;100.00
74524;BME280;63074;44.696;10.358;2022-10-13T08:03:26;100587.00;;;15.91;100.00
74524;BME280;63074;44.696;10.358;2022-10-13T08:05:51;100578.34;;;15.94;100.00
74524;BME280;63074;44.696;10.358;2022-10-13T08:08:17;100586.88;;;15.75;100.00
74524;BME280;63074;44.696;10.358;2022-10-13T08:10:43;100576.91;;;16.13;100.00
74524;BME280;63074;44.696;10.358;2022-10-13T08:13:11;100581.88;;;16.26;100.00
74524;BME280;63074;44.696;10.358;2022-10-13T08:15:41;100573.63;;;16.48;100.00
74524;BME280;63074;44.696;10.358;2022-10-13T08:18:08;100581.81;;;16.16;100.00
74524;BME280;63074;44.696;10.358;2022-10-13T08:20:34;100585.88;;;16.13;100.00
74524;BME280;63074;44.696;10.358;2022-10-13T08:22:59;100578.19;;;16.05;100.00
74524;BME280;63074;44.696;10.358;2022-10-13T08:25:25;100574.25;;;16.23;100.00
74524;BME280;63074;44.696;10.358;2022-10-13T08:27:50;100571.25;;;16.14;100.00
74524;BME280;63074;44.696;10.358;2022-10-13T08:30:16;100576.72;;;16.25;100.00
74524;BME280;63074;44.696;10.358;2022-10-13T08:32:41;100574.53;;;16.21;100.00
74524;BME280;63074;44.696;10.358;2022-10-13T08:35:08;100571.97;;;16.05;100.00
74524;BME280;63074;44.696;10.358;2022-10-13T08:37:34;100567.97;;;16.17;100.00
74524;BME280;63074;44.696;10.358;2022-10-13T08:39:59;100564.44;;;16.12;100.00
74524;BME280;63074;44.696;10.358;2022-10-13T08:42:25;100572.97;;;16.31;100.00
74524;BME280;63074;44.696;10.358;2022-10-13T08:45:01;100564.44;;;16.17;100.00
74524;BME280;63074;44.696;10.358;2022-10-13T08:47:36;100566.03;;;16.45;100.00
74524;BME280;63074;44.696;10.358;2022-10-13T08:50:10;100562.75;;;16.48;100.00
74524;BME280;63074;44.696;10.358;2022-10-13T08:52:56;100563.28;;;16.40;100.00
74524;BME280;63074;44.696;10.358;2022-10-13T08:55:23;100564.06;;;16.35;100.00
74524;BME280;63074;44.696;10.358;2022-10-13T08:57:54;100562.06;;;16.63;100.00
74524;BME280;63074;44.696;10.358;2022-10-13T09:00:19;100559.88;;;16.60;100.00
74524;BME280;63074;44.696;10.358;2022-10-13T09:02:45;100562.22;;;16.46;100.00
74524;BME280;63074;44.696;10.358;2022-10-13T09:05:43;100567.00;;;16.66;100.00
74524;BME280;63074;44.696;10.358;2022-10-13T09:08:17;100562.13;;;16.68;100.00
74524;BME280;63074;44.696;10.358;2022-10-13T09:11:01;100574.47;;;16.53;100.00
74524;BME280;63074;44.696;10.358;2022-10-13T09:13:27;100572.22;;;16.82;100.00
74524;BME280;63074;44.696;10.358;2022-10-13T09:15:52;100563.09;;;17.09;100.00
74524;BME280;63074;44.696;10.358;2022-10-13T09:18:18;100567.44;;;17.00;100.00
74524;BME280;63074;44.696;10.358;2022-10-13T09:21:08;100564.09;;;16.82;100.00
74524;BME280;63074;44.696;10.358;2022-10-13T09:23:34;100559.31;;;17.10;100.00
74524;BME280;63074;44.696;10.358;2022-10-13T09:26:06;100563.38;;;17.07;100.00
74524;BME280;63074;44.696;10.358;2022-10-13T09:28:33;100565.13;;;17.44;100.00
74524;BME280;63074;44.696;10.358;2022-10-13T09:31:05;100566.25;;;17.53;100.00
74524;BME280;63074;44.696;10.358;2022-10-13T09:33:35;100557.22;;;17.37;100.00
74524;BME280;63074;44.696;10.358;2022-10-13T09:38:27;100558.16;;;17.88;100.00
74524;BME280;63074;44.696;10.358;2022-10-13T09:41:05;100555.38;;;17.58;100.00
74524;BME280;63074;44.696;10.358;2022-10-13T09:43:35;100551.59;;;17.69;100.00
74524;BME280;63074;44.696;10.358;2022-10-13T09:46:01;100548.84;;;17.54;100.00
74524;BME280;63074;44.696;10.358;2022-10-13T09:48:32;100540.19;;;17.72;100.00
74524;BME280;63074;44.696;10.358;2022-10-13T09:50:59;100533.94;;;17.92;100.00
74524;BME280;63074;44.696;10.358;2022-10-13T09:53:29;100535.88;;;17.86;100.00
74524;BME280;63074;44.696;10.358;2022-10-13T09:58:39;100523.25;;;18.62;97.21
74524;BME280;63074;44.696;10.358;2022-10-13T10:01:18;100524.75;;;18.98;96.28
74524;BME280;63074;44.696;10.358;2022-10-13T10:03:45;100525.75;;;19.17;98.30
74524;BME280;63074;44.696;10.358;2022-10-13T10:06:13;100522.56;;;19.54;93.92
74524;BME280;63074;44.696;10.358;2022-10-13T10:11:30;100513.88;;;19.42;94.04
74524;BME280;63074;44.696;10.358;2022-10-13T10:17:35;100512.81;;;18.89;97.48
74524;BME280;63074;44.696;10.358;2022-10-13T10:20:16;100503.09;;;19.66;92.52
74524;BME280;63074;44.696;10.358;2022-10-13T10:23:00;100494.22;;;20.18;86.32
74524;BME280;63074;44.696;10.358;2022-10-13T10:25:50;100501.22;;;19.96;84.64
74524;BME280;63074;44.696;10.358;2022-10-13T10:38:48;100500.41;;;20.77;80.07
74524;BME280;63074;44.696;10.358;2022-10-13T10:46:39;100466.00;;;20.76;77.84
74524;BME280;63074;44.696;10.358;2022-10-13T10:51:47;100456.28;;;22.23;71.01
74524;BME280;63074;44.696;10.358;2022-10-13T10:54:51;100449.59;;;22.02;70.22
74524;BME280;63074;44.696;10.358;2022-10-13T10:57:27;100456.28;;;22.23;68.12
74524;BME280;63074;44.696;10.358;2022-10-13T11:00:04;100455.63;;;21.53;69.81
74524;BME280;63074;44.696;10.358;2022-10-13T11:05:08;100457.47;;;21.20;69.67
74524;BME280;63074;44.696;10.358;2022-10-13T11:10:01;100446.00;;;20.99;68.80
74524;BME280;63074;44.696;10.358;2022-10-13T11:15:26;100439.50;;;21.51;67.07
74524;BME280;63074;44.696;10.358;2022-10-13T11:17:52;100434.19;;;22.06;64.69
74524;BME280;63074;44.696;10.358;2022-10-13T11:30:48;100424.53;;;22.77;63.39
74524;BME280;63074;44.696;10.358;2022-10-13T11:42:08;100405.59;;;23.62;55.65
74524;BME280;63074;44.696;10.358;2022-10-13T11:55:19;100388.75;;;30.73;36.04
74524;BME280;63074;44.696;10.358;2022-10-13T11:57:47;100394.44;;;29.10;37.08
74524;BME280;63074;44.696;10.358;2022-10-13T12:00:15;100386.31;;;29.73;35.16
74524;BME280;63074;44.696;10.358;2022-10-13T12:02:49;100388.81;;;30.57;34.64
74524;BME280;63074;44.696;10.358;2022-10-13T12:05:27;100377.97;;;28.25;38.45
74524;BME280;63074;44.696;10.358;2022-10-13T12:07:55;100372.28;;;29.98;35.46
74524;BME280;63074;44.696;10.358;2022-10-13T12:12:49;100377.91;;;31.41;32.74
74524;BME280;63074;44.696;10.358;2022-10-13T12:15:32;100373.50;;;31.40;33.36
74524;BME280;63074;44.696;10.358;2022-10-13T12:17:59;100364.75;;;31.19;34.49
74524;BME280;63074;44.696;10.358;2022-10-13T12:20:28;100368.47;;;32.67;31.75
74524;BME280;63074;44.696;10.358;2022-10-13T12:22:54;100377.28;;;32.99;31.43
74524;BME280;63074;44.696;10.358;2022-10-13T12:25:23;100355.38;;;32.15;30.11
74524;BME280;63074;44.696;10.358;2022-10-13T12:27:57;100358.03;;;31.39;32.13
74524;BME280;63074;44.696;10.358;2022-10-13T12:30:32;100364.09;;;27.31;37.27
74524;BME280;63074;44.696;10.358;2022-10-13T12:33:02;100367.53;;;26.66;40.72
74524;BME280;63074;44.696;10.358;2022-10-13T12:35:32;100367.19;;;26.46;40.84
74524;BME280;63074;44.696;10.358;2022-10-13T12:38:05;100361.41;;;24.60;44.88
74524;BME280;63074;44.696;10.358;2022-10-13T12:40:31;100360.97;;;27.00;41.22
74524;BME280;63074;44.696;10.358;2022-10-13T12:42:56;100359.28;;;31.22;32.67
74524;BME280;63074;44.696;10.358;2022-10-13T12:45:27;100361.66;;;32.12;31.04
74524;BME280;63074;44.696;10.358;2022-10-13T12:47:54;100361.06;;;32.75;29.39
74524;BME280;63074;44.696;10.358;2022-10-13T12:53:36;100352.13;;;31.21;32.90
74524;BME280;63074;44.696;10.358;2022-10-13T12:55:57;100358.03;;;28.32;36.83
74524;BME280;63074;44.696;10.358;2022-10-13T13:00:56;100349.19;;;26.70;40.75
74524;BME280;63074;44.696;10.358;2022-10-13T13:03:25;100353.84;;;26.99;40.34
74524;BME280;63074;44.696;10.358;2022-10-13T13:06:10;100341.44;;;28.07;39.96
74524;BME280;63074;44.696;10.358;2022-10-13T13:08:44;100340.09;;;29.93;36.14
74524;BME280;63074;44.696;10.358;2022-10-13T13:11:23;100342.28;;;25.49;41.64
74524;BME280;63074;44.696;10.358;2022-10-13T13:19:46;100332.72;;;24.26;44.08
74524;BME280;63074;44.696;10.358;2022-10-13T13:22:11;100333.78;;;25.16;43.07
74524;BME280;63074;44.696;10.358;2022-10-13T13:24:37;100325.84;;;24.89;42.44
74524;BME280;63074;44.696;10.358;2022-10-13T13:27:22;100333.53;;;23.25;45.39
74524;BME280;63074;44.696;10.358;2022-10-13T13:29:48;100331.31;;;24.54;46.15
74524;BME280;63074;44.696;10.358;2022-10-13T13:32:15;100333.97;;;25.11;43.89
74524;BME280;63074;44.696;10.358;2022-10-13T13:34:41;100337.53;;;26.64;39.99
74524;BME280;63074;44.696;10.358;2022-10-13T13:37:24;100327.88;;;28.39;37.17
74524;BME280;63074;44.696;10.358;2022-10-13T13:39:51;100330.13;;;29.29;34.79
74524;BME280;63074;44.696;10.358;2022-10-13T13:42:16;100326.13;;;27.61;38.04
74524;BME280;63074;44.696;10.358;2022-10-13T13:44:42;100333.06;;;27.46;40.16
74524;BME280;63074;44.696;10.358;2022-10-13T13:47:16;100332.13;;;26.55;40.63
74524;BME280;63074;44.696;10.358;2022-10-13T13:49:41;100329.19;;;25.46;43.38
74524;BME280;63074;44.696;10.358;2022-10-13T13:52:07;100332.00;;;25.20;43.86
74524;BME280;63074;44.696;10.358;2022-10-13T13:54:32;100322.38;;;25.44;43.34
74524;BME280;63074;44.696;10.358;2022-10-13T13:56:58;100320.50;;;25.18;43.73
74524;BME280;63074;44.696;10.358;2022-10-13T13:59:23;100317.16;;;25.04;44.32
74524;BME280;63074;44.696;10.358;2022-10-13T14:01:48;100310.09;;;25.97;42.70
74524;BME280;63074;44.696;10.358;2022-10-13T14:04:14;100310.50;;;25.05;43.21
74524;BME280;63074;44.696;10.358;2022-10-13T14:06:39;100303.06;;;24.71;46.32
74524;BME280;63074;44.696;10.358;2022-10-13T14:09:04;100305.31;;;24.35;46.78
74524;BME280;63074;44.696;10.358;2022-10-13T14:11:30;100306.28;;;24.56;44.24
74524;BME280;63074;44.696;10.358;2022-10-13T14:13:55;100303.88;;;24.72;44.49
74524;BME280;63074;44.696;10.358;2022-10-13T14:16:26;100299.91;;;23.64;45.27
74524;BME280;63074;44.696;10.358;2022-10-13T14:18:51;100306.63;;;24.63;43.76
74524;BME280;63074;44.696;10.358;2022-10-13T14:21:17;100299.31;;;25.28;42.93
74524;BME280;63074;44.696;10.358;2022-10-13T14:23:42;100301.25;;;26.12;41.56
74524;BME280;63074;44.696;10.358;2022-10-13T14:26:11;100286.94;;;25.51;42.61
74524;BME280;63074;44.696;10.358;2022-10-13T14:28:40;100289.78;;;26.01;41.22
74524;BME280;63074;44.696;10.358;2022-10-13T14:31:06;100292.88;;;28.71;36.49
74524;BME280;63074;44.696;10.358;2022-10-13T14:33:32;100290.09;;;26.08;41.27
74524;BME280;63074;44.696;10.358;2022-10-13T14:35:59;100286.91;;;24.61;45.23
74524;BME280;63074;44.696;10.358;2022-10-13T14:38:25;100290.16;;;23.89;48.00